Relevés horaires St-Hubert (Belgique)


Relevés horaires à St-Hubert - Samedi 03 Mai 2014
Heure UTC1 Température [°C] Vent [km/h] Hum. [%] Pres.4 [hPa] Visi. [Km] Nébu. [octa] Préc.5 [mm] Cond.
2m. Res. Ros. Dir.2 Vit. Moy. Raf.3
23:00 1.4 1.4 -1.3 ENE 3.7 3.7 5.6 82 1026.7(0.1/3h) 30 0/8 -- --
22:00 2.7 2.7 -1.1 ENE 3.7 3.7 5.6 76 1026.7(0.7/3h) 35 0/8 -- --
21:00 3.6 3.6 -1.2 NE 3.7 7.4 11.1 71 1026.2(0.5/3h) 40 0/8 -- --
20:00 5.7 5.7 -0.8 NE 3.7 5.6 9.3 63 1025.5(0.7/3h) 45 0/8 -- --
19:00 6.9 6 -1.5 N 5.6 7.4 11.1 55 1024.9(0.4/3h) 40 0/8 -- --
18:00 7.8 6.6 -3.3 N 7.4 13.0 22.2 45 1024.6(0.2/3h) 40 2/8 0/12h
--
17:00 8.8 7 -3.3 N 11.1 11.1 16.7 42 1024(0.1/3h) 40 6/8 -- --
16:00 9.6 8 -2.3 N 11.1 13.0 20.4 43 1023.7(-0.3/3h) 30 3/8 -- --
15:00 9.1 7.1 -2.9 N 13.0 13.0 22.2 43 1024(0.1/3h) 30 4/8 -- --
14:00 10.0 8.8 -2.6 NE 9.3 11.1 18.5 41 1023.8(0.2/3h) 40 8/8 -- --
13:00 9.9 8.6 -3.2 NE 9.3 11.1 18.5 40 1024(0.0/3h) 30 5/8 -- --
12:00 9.9 8.6 -4.2 NE 9.3 13.0 22.2 37 1023.9(0.1/3h) 35 4/8 0/6h
--
11:00 9.1 7.7 -2.5 NE 9.3 13.0 20.4 44 1024.2(0.5/3h) 35 7/8 -- --
10:00 7.1 4.6 -2.4 N 13.0 13.0 18.5 51 1024.7(0.8/3h) 35 4/8 -- --
09:00 6.2 3.9 -1.8 NNE 11.1 13.0 18.5 56 1024.7(0.7/3h) 29 2/8 -- --
08:00 5.5 3 0.2 NE 11.1 11.1 16.7 69 1024.5(0.8/3h) 21 5/8 -- --
07:00 4.9 2.3 0.9 NE 11.1 11.1 16.7 75 1024.3(1.1/3h) 20 5/8 -- --
06:00 3.1 1.1 1.2 NNE 7.4 13.0 20.4 87 1024.6(1.2/3h) -- 4/8 trace/12h
--
05:00 2.7 0.6 1.2 NE 7.4 11.1 20.4 90 1024.3(0.8/3h) -- 1/8 -- --
04:00 3.0 0 1.4 NNE 11.1 13.0 18.5 89 1023.7(0.6/3h) -- 8/8 -- --
03:00 3.3 0.4 1.3 NNE 11.1 13.0 18.5 87 1023.3(-0.2/3h) -- 0/8 -- --
02:00 3.6 0.7 1.7 NNE 11.1 13.0 16.7 87 1023.1(-0.2/3h) -- 8/8 -- --
01:00 3.5 1 1.8 NE 9.3 11.1 16.7 89 1022.9(-0.4/3h) -- 8/8 -- --
00:00 3.9 1.1 2.3 N 11.1 11.1 16.7 89 1023(0.2/3h) -- 8/8 trace/6h
0.2/24h
--

1 Coordinated Universal Time. Actuellement il est 09:00 locale et 08:00 UTC.

2 Le vent souffle depuis la direction indiquée vers la direction oposée.

3 Les rafales max. sont disponible 40 min après l'heure du relevé.

4 Pour les stations d'altitude (plus de 600m) le géopotentiel du niveau le plus proche de la pression obligatoire est indiqué.

5 Les stations disposant d'un diffuseur peuvent indiquer "trace". Cela signifie que des précipitations ont touchés le sol mais que la quantité est inférieure à 0.1 mm.

Récapitulatif de la journée
Température [°C] Vent [km/h] Ensoleillement4 [h] Precipitations totale5 [mm] Pression [Hpa]
Min1 Max.2 Moy.3 Max. Min Max.
2.5 10.6 10.8 22.2 0 h 0 min 0 1022.9 1026.7

1 Température minimale relevée entre 18:00 UTC la veille et 18:00 UTC le jour donné.

2 Température maximale relevée entre 06:00 UTC le jour donné et 06:00 UTC le lendemain.

3 Vent moyen de la journée basé sur les relevés horaires.

4 Ensoleillement en heures relevé entre 06:00 UTC la veille et 06:00 UTC le jour donné.

5 Précipitations totales tombées entre 06:00 UTC la jour donné et 06:00 UTC le lendemain.

Graphiques horaires